Time;durP1;ratioP1;P1;durP2;ratioP2;P2;SDS_P1;SDS_P2;PMS_P1;PMS_P2;Temp;Humidity;BMP_temperature;BMP_pressure;BME280_temperature;BME280_humidity;BME280_pressure;Samples;Min_cycle;Max_cycle;Signal;HPM_P1;HPM_P2
2023/07/26 00:02:05;;;;;;;6.40;3.40;;;;;;;16.57;90.86;99398.34;223265;1266;144076;-89
2023/07/26 00:07:05;;;;;;;10.60;4.90;;;;;;;16.56;90.42;99401.00;223690;1267;139010;-90
2023/07/26 00:12:06;;;;;;;9.40;4.30;;;;;;;16.55;90.72;99406.17;223149;1267;141719;-90
2023/07/26 00:17:07;;;;;;;10.40;4.70;;;;;;;16.52;91.73;99417.14;223703;1267;139444;-92
2023/07/26 00:22:07;;;;;;;8.60;5.70;;;;;;;16.48;91.73;99425.35;223130;1267;142322;-90
2023/07/26 00:27:07;;;;;;;12.70;6.20;;;;;;;16.46;93.15;99432.94;223640;1267;139441;-89
2023/07/26 00:32:08;;;;;;;9.70;5.30;;;;;;;16.41;94.00;99440.17;223280;1267;141810;-90
2023/07/26 00:37:08;;;;;;;10.00;5.00;;;;;;;16.35;94.29;99441.63;223683;1267;139099;-88
2023/07/26 00:42:09;;;;;;;11.90;6.20;;;;;;;16.33;94.76;99447.42;223140;1267;140917;-88
2023/07/26 00:47:10;;;;;;;10.00;5.10;;;;;;;16.30;94.91;99449.63;223674;1267;140073;-88
2023/07/26 00:52:11;;;;;;;9.60;5.50;;;;;;;16.29;95.47;99453.56;223142;1267;140981;-87
2023/07/26 00:57:12;;;;;;;9.50;5.30;;;;;;;16.27;96.13;99454.70;223676;1267;138672;-87
2023/07/26 01:02:13;;;;;;;10.50;5.60;;;;;;;16.27;95.78;99453.61;223129;1267;141920;-87
2023/07/26 01:07:23;;;;;;;11.30;5.90;;;;;;;16.27;95.95;99450.85;223845;1267;95930;-86
2023/07/26 01:12:28;;;;;;;9.60;5.50;;;;;;;16.24;96.49;99443.85;223163;1266;141828;-87
2023/07/26 01:17:29;;;;;;;11.50;5.20;;;;;;;16.22;97.03;99452.73;223564;1267;140119;-87
2023/07/26 01:22:30;;;;;;;8.10;4.50;;;;;;;16.19;97.03;99458.66;223169;1266;143255;-87
2023/07/26 01:27:30;;;;;;;8.80;4.70;;;;;;;16.17;97.19;99459.44;223603;1266;139554;-87
2023/07/26 01:32:31;;;;;;;10.50;4.90;;;;;;;16.18;96.74;99471.09;223149;1268;140355;-87
2023/07/26 01:37:32;;;;;;;8.40;4.60;;;;;;;16.18;96.14;99473.22;223778;1266;95945;-89
2023/07/26 01:42:33;;;;;;;5.60;3.50;;;;;;;16.17;96.53;99473.55;223123;1267;141132;-89
2023/07/26 01:47:34;;;;;;;11.70;3.80;;;;;;;16.14;96.67;99472.69;223629;1267;139337;-90
2023/07/26 01:52:34;;;;;;;6.60;3.40;;;;;;;16.11;97.11;99484.66;223164;1266;141465;-89
2023/07/26 01:57:35;;;;;;;7.70;3.80;;;;;;;16.07;97.90;99493.64;223713;1267;139462;-89
2023/07/26 02:02:35;;;;;;;7.90;4.10;;;;;;;16.02;98.25;99502.88;223170;1267;140946;-89
2023/07/26 02:07:35;;;;;;;13.50;5.80;;;;;;;15.96;98.96;99500.43;223766;1267;96226;-90
2023/07/26 02:12:36;;;;;;;7.90;3.20;;;;;;;15.90;99.39;99504.95;223155;1268;140334;-88
2023/07/26 02:17:36;;;;;;;7.00;2.60;;;;;;;15.86;98.78;99504.43;223711;1267;139185;-86
2023/07/26 02:22:37;;;;;;;7.30;3.40;;;;;;;15.84;98.31;99499.86;223176;1266;140515;-86
2023/07/26 02:27:37;;;;;;;7.50;2.90;;;;;;;15.83;98.50;99500.70;223721;1268;139266;-86
2023/07/26 02:32:37;;;;;;;10.30;3.40;;;;;;;15.78;99.64;99505.09;223128;1268;140703;-86
2023/07/26 02:37:38;;;;;;;7.10;2.50;;;;;;;15.74;98.86;99511.45;223792;1266;95939;-85
2023/07/26 02:42:38;;;;;;;5.30;2.50;;;;;;;15.74;97.49;99518.02;223187;1266;141346;-86
2023/07/26 02:47:39;;;;;;;6.10;2.60;;;;;;;15.74;98.74;99517.95;223676;1267;139437;-86
2023/07/26 02:52:39;;;;;;;8.30;3.10;;;;;;;15.70;98.90;99522.41;223171;1268;142374;-86
2023/07/26 02:57:40;;;;;;;7.00;2.30;;;;;;;15.66;99.07;99531.20;223727;1268;139500;-86
2023/07/26 03:02:40;;;;;;;5.50;2.20;;;;;;;15.63;99.13;99544.45;223145;1267;140399;-86
2023/07/26 03:07:40;;;;;;;4.60;2.50;;;;;;;15.60;98.29;99551.26;223811;1266;96118;-86
2023/07/26 03:12:41;;;;;;;5.70;2.30;;;;;;;15.56;97.59;99548.16;223166;1267;140909;-86
2023/07/26 03:17:41;;;;;;;5.40;2.30;;;;;;;15.53;96.79;99552.45;223728;1266;139110;-87
2023/07/26 03:22:42;;;;;;;7.80;2.80;;;;;;;15.51;96.65;99554.55;223192;1266;140305;-87
2023/07/26 03:27:42;;;;;;;5.40;2.60;;;;;;;15.45;97.44;99561.11;223685;1267;138822;-87
2023/07/26 03:32:43;;;;;;;6.00;2.40;;;;;;;15.40;97.15;99560.98;223127;1267;140959;-87
2023/07/26 03:37:43;;;;;;;9.20;2.70;;;;;;;15.38;97.17;99564.05;223809;1268;95922;-87
2023/07/26 03:42:43;;;;;;;3.80;2.40;;;;;;;15.35;98.62;99563.31;223111;1266;141436;-87
2023/07/26 03:47:44;;;;;;;6.60;2.50;;;;;;;15.34;98.30;99557.86;223685;1267;139092;-87
2023/07/26 03:52:44;;;;;;;9.50;2.70;;;;;;;15.33;99.24;99558.44;223136;1267;141823;-87
2023/07/26 03:57:45;;;;;;;9.20;3.10;;;;;;;15.32;99.00;99568.98;223683;1267;140194;-87
2023/07/26 04:02:45;;;;;;;7.90;3.20;;;;;;;15.31;99.62;99571.20;223186;1266;142849;-87
2023/07/26 04:07:45;;;;;;;6.80;2.90;;;;;;;15.31;99.27;99572.02;223856;1266;95816;-87
2023/07/26 04:12:46;;;;;;;7.00;3.30;;;;;;;15.33;99.24;99576.66;223165;1267;141742;-87
2023/07/26 04:17:46;;;;;;;7.60;2.50;;;;;;;15.33;99.86;99582.13;223718;1266;138577;-88
2023/07/26 04:22:47;;;;;;;5.10;2.50;;;;;;;15.32;99.98;99589.26;223155;1267;140709;-87
2023/07/26 04:27:47;;;;;;;4.10;2.30;;;;;;;15.34;100.00;99588.44;223678;1270;139381;-87
2023/07/26 04:32:48;;;;;;;7.10;3.20;;;;;;;15.37;100.00;99584.41;223183;1268;140474;-87
2023/07/26 04:37:49;;;;;;;5.50;3.20;;;;;;;15.42;100.00;99587.55;223742;1267;111099;-87
2023/07/26 04:42:50;;;;;;;9.50;3.20;;;;;;;15.49;100.00;99593.91;223169;1266;142224;-88
2023/07/26 04:47:50;;;;;;;8.00;3.80;;;;;;;15.57;100.00;99594.98;223704;1268;139391;-88
2023/07/26 04:52:51;;;;;;;9.10;3.60;;;;;;;15.63;100.00;99598.50;223188;1266;141804;-87
2023/07/26 04:57:51;;;;;;;7.60;3.50;;;;;;;15.71;100.00;99601.00;223660;1266;138842;-87
2023/07/26 05:02:51;;;;;;;8.00;3.40;;;;;;;15.80;100.00;99600.10;223149;1268;143220;-87
2023/07/26 05:07:52;;;;;;;6.40;3.40;;;;;;;15.89;100.00;99605.83;223833;1266;96625;-87
2023/07/26 05:12:52;;;;;;;9.10;3.50;;;;;;;15.99;100.00;99610.33;223207;1266;141104;-88
2023/07/26 05:17:52;;;;;;;8.00;3.80;;;;;;;16.09;100.00;99620.96;223642;1268;139688;-87
2023/07/26 05:22:53;;;;;;;8.00;3.60;;;;;;;16.17;100.00;99622.90;223113;1266;140592;-88
2023/07/26 05:27:54;;;;;;;11.40;4.30;;;;;;;16.23;100.00;99626.71;223690;1267;139690;-88
2023/07/26 05:32:55;;;;;;;7.50;3.60;;;;;;;16.29;100.00;99632.69;223182;1267;142316;-88
2023/07/26 05:37:55;;;;;;;7.70;3.70;;;;;;;16.37;100.00;99635.65;223833;1267;96125;-89
2023/07/26 05:42:56;;;;;;;11.40;4.60;;;;;;;16.46;100.00;99636.09;223126;1267;141414;-90
2023/07/26 05:47:56;;;;;;;10.60;3.50;;;;;;;16.59;100.00;99643.14;223699;1268;139030;-89
2023/07/26 05:52:56;;;;;;;9.20;4.20;;;;;;;16.70;100.00;99654.27;223142;1266;141273;-89
2023/07/26 05:57:57;;;;;;;11.10;4.40;;;;;;;16.80;100.00;99664.51;223595;1267;139449;-91
2023/07/26 06:02:57;;;;;;;8.70;3.90;;;;;;;16.88;100.00;99669.04;223122;1266;142118;-90
2023/07/26 06:07:58;;;;;;;13.10;5.00;;;;;;;16.96;100.00;99671.45;223800;1270;96844;-91
2023/07/26 06:12:58;;;;;;;16.30;5.10;;;;;;;17.00;100.00;99677.13;223160;1271;141783;-89
2023/07/26 06:17:59;;;;;;;11.40;4.00;;;;;;;17.09;100.00;99677.95;223675;1267;139116;-91
2023/07/26 06:23:00;;;;;;;11.60;4.80;;;;;;;17.17;100.00;99675.73;223136;1268;140887;-90
2023/07/26 06:28:00;;;;;;;9.60;4.10;;;;;;;17.25;100.00;99673.02;223693;1268;139109;-89
2023/07/26 06:33:01;;;;;;;9.70;3.80;;;;;;;17.35;99.85;99679.11;223164;1268;140551;-90
2023/07/26 06:38:01;;;;;;;11.20;4.30;;;;;;;17.44;98.90;99686.42;223815;1266;96057;-91
2023/07/26 06:43:02;;;;;;;11.00;3.80;;;;;;;17.51;97.93;99684.15;223132;1269;140634;-89
2023/07/26 06:48:02;;;;;;;9.00;3.80;;;;;;;17.61;96.97;99689.67;223633;1268;138729;-89
2023/07/26 06:53:03;;;;;;;7.00;3.30;;;;;;;17.70;96.42;99694.66;223144;1270;140525;-89
2023/07/26 06:58:04;;;;;;;11.30;3.70;;;;;;;17.77;96.03;99703.02;223692;1266;138625;-89
2023/07/26 07:03:05;;;;;;;10.10;3.40;;;;;;;17.84;95.50;99706.41;223125;1271;141704;-90
2023/07/26 07:08:05;;;;;;;8.00;3.30;;;;;;;17.92;94.52;99713.96;223764;1268;95932;-90
2023/07/26 07:13:06;;;;;;;12.40;4.60;;;;;;;18.03;93.93;99714.80;223112;1268;140314;-90
2023/07/26 07:18:06;;;;;;;9.60;3.80;;;;;;;18.15;93.66;99715.78;223658;1268;139116;-90
2023/07/26 07:23:08;;;;;;;11.60;3.70;;;;;;;18.25;93.59;99722.33;223164;1267;140791;-91
2023/07/26 07:28:09;;;;;;;10.10;3.60;;;;;;;18.38;93.04;99728.21;223645;1267;139372;-92
2023/07/26 07:33:09;;;;;;;12.00;3.80;;;;;;;18.47;91.78;99724.91;223126;1268;140948;-91
2023/07/26 07:38:10;;;;;;;10.40;3.40;;;;;;;18.59;91.86;99729.14;223827;1267;96029;-92
2023/07/26 07:43:10;;;;;;;12.40;3.60;;;;;;;18.69;91.42;99732.70;223173;1268;140440;-92
2023/07/26 07:48:11;;;;;;;9.80;3.30;;;;;;;18.77;90.75;99732.29;223723;1266;139311;-92
2023/07/26 07:53:12;;;;;;;10.30;3.20;;;;;;;18.85;90.13;99740.20;223162;1268;140713;-93
2023/07/26 07:58:12;;;;;;;9.40;3.20;;;;;;;18.88;89.25;99741.32;223733;1267;139204;-93
2023/07/26 08:03:12;;;;;;;8.10;3.30;;;;;;;18.88;88.74;99744.35;223171;1267;140752;-93
2023/07/26 08:08:13;;;;;;;10.20;3.40;;;;;;;18.91;88.35;99745.49;223683;1268;138827;-93
2023/07/26 08:13:13;;;;;;;9.00;3.00;;;;;;;18.90;87.81;99747.20;223245;1266;140672;-93
2023/07/26 08:18:13;;;;;;;11.50;3.40;;;;;;;18.93;87.98;99743.36;223649;1267;138970;-92
2023/07/26 08:23:14;;;;;;;7.40;2.80;;;;;;;18.95;87.44;99760.29;223205;1267;141823;-93
2023/07/26 08:28:15;;;;;;;10.10;3.10;;;;;;;18.86;86.81;99769.48;223662;1267;138632;-92
2023/07/26 08:33:15;;;;;;;9.30;2.70;;;;;;;18.80;86.83;99773.59;223162;1267;140756;-93
2023/07/26 08:38:17;;;;;;;9.00;2.70;;;;;;;18.80;86.75;99780.36;223631;1267;139084;-93
2023/07/26 08:43:20;;;;;;;10.70;3.10;;;;;;;18.86;86.51;99788.78;223240;1267;141622;-92
2023/07/26 08:48:21;;;;;;;9.10;2.90;;;;;;;18.89;86.28;99792.73;223639;1267;139260;-91
2023/07/26 08:53:23;;;;;;;8.70;3.00;;;;;;;18.94;84.73;99792.65;223176;1267;140675;-90
2023/07/26 08:58:23;;;;;;;9.00;3.30;;;;;;;18.83;85.23;99789.83;223692;1267;139339;-90
2023/07/26 09:03:24;;;;;;;7.60;2.80;;;;;;;18.87;85.36;99789.39;223157;1267;141472;-91
2023/07/26 09:08:24;;;;;;;10.10;3.20;;;;;;;18.93;85.38;99790.38;223663;1267;139623;-90
2023/07/26 09:13:24;;;;;;;11.70;3.20;;;;;;;19.02;84.83;99792.39;223221;1271;141548;-91
2023/07/26 09:18:25;;;;;;;9.40;2.80;;;;;;;19.03;84.25;99796.11;223656;1267;138826;-89
2023/07/26 09:23:26;;;;;;;8.40;2.90;;;;;;;19.09;83.85;99792.64;223109;1267;142917;-89
2023/07/26 09:28:26;;;;;;;7.00;2.20;;;;;;;19.28;83.75;99786.27;223668;1271;139556;-90
2023/07/26 09:33:28;;;;;;;7.00;2.30;;;;;;;19.44;82.29;99786.09;223140;1267;140963;-89
2023/07/26 09:38:30;;;;;;;11.00;2.60;;;;;;;19.64;82.33;99782.04;223667;1267;138633;-90
2023/07/26 09:43:32;;;;;;;9.30;2.10;;;;;;;19.99;82.24;99782.02;222967;1267;142317;-89
2023/07/26 09:48:33;;;;;;;3.90;1.70;;;;;;;20.43;80.50;99777.06;223618;1267;138795;-89
2023/07/26 09:53:35;;;;;;;7.50;2.10;;;;;;;20.73;77.99;99779.46;223126;1267;140698;-89
2023/07/26 09:58:39;;;;;;;5.70;1.90;;;;;;;21.15;77.78;99772.60;223717;1267;138644;-89
2023/07/26 10:03:44;;;;;;;5.10;1.70;;;;;;;21.50;76.87;99775.00;223110;1267;142323;-89
2023/07/26 10:08:46;;;;;;;5.70;2.10;;;;;;;21.73;74.74;99774.70;223538;1270;138765;-89
2023/07/26 10:13:49;;;;;;;7.60;2.20;;;;;;;21.86;71.35;99780.26;223190;1267;142856;-89
2023/07/26 10:18:53;;;;;;;6.90;2.10;;;;;;;22.01;71.07;99780.97;223618;1267;138636;-89
2023/07/26 10:23:56;;;;;;;6.90;2.00;;;;;;;21.97;68.52;99784.68;223133;1267;141249;-89
2023/07/26 10:28:59;;;;;;;5.90;1.90;;;;;;;22.01;68.30;99785.86;223041;1270;140699;-89
2023/07/26 10:34:00;;;;;;;8.30;2.00;;;;;;;22.20;67.94;99781.47;223696;1267;137999;-90
2023/07/26 10:39:04;;;;;;;5.50;1.50;;;;;;;22.42;66.11;99777.92;223157;1267;139909;-89
2023/07/26 10:44:07;;;;;;;6.90;1.60;;;;;;;22.59;62.47;99780.84;223743;1267;110558;-90
2023/07/26 10:49:24;;;;;;;5.00;1.40;;;;;;;22.87;62.95;99782.02;223164;1267;139876;-90
2023/07/26 10:54:41;;;;;;;6.10;1.50;;;;;;;23.18;60.02;99780.54;223572;1267;137940;-91
2023/07/26 11:00:10;;;;;;;7.60;1.50;;;;;;;23.50;61.14;99774.02;223067;1267;140765;-89
2023/07/26 11:05:16;;;;;;;5.10;1.80;;;;;;;23.86;55.83;99778.10;223588;1267;138675;-91
2023/07/26 11:10:26;;;;;;;6.60;1.80;;;;;;;23.89;55.65;99774.29;223061;1266;140471;-92
2023/07/26 11:15:28;;;;;;;5.60;1.80;;;;;;;24.02;57.61;99771.23;223570;1267;138717;-91
2023/07/26 11:20:28;;;;;;;4.10;1.40;;;;;;;23.97;55.27;99770.71;223149;1266;141480;-92
2023/07/26 11:25:29;;;;;;;4.10;1.30;;;;;;;23.74;57.23;99771.11;223793;1267;95969;-93
2023/07/26 11:30:29;;;;;;;6.10;1.50;;;;;;;23.75;57.47;99771.15;223119;1266;140204;-92
2023/07/26 11:35:42;;;;;;;4.60;1.40;;;;;;;24.05;58.33;99763.50;223690;1267;138554;-92
2023/07/26 11:40:43;;;;;;;4.60;1.40;;;;;;;24.45;55.86;99762.56;223113;1266;140431;-92
2023/07/26 11:45:44;;;;;;;5.20;1.60;;;;;;;24.63;54.88;99762.52;223676;1266;138226;-93
2023/07/26 11:50:44;;;;;;;4.30;1.50;;;;;;;24.84;54.36;99768.73;223152;1266;140167;-90
2023/07/26 11:55:50;;;;;;;5.10;1.30;;;;;;;24.86;52.29;99768.70;223791;1266;96134;-93
2023/07/26 12:00:51;;;;;;;3.00;1.20;;;;;;;24.78;53.75;99770.02;223125;1267;140256;-93
2023/07/26 12:05:54;;;;;;;6.60;1.50;;;;;;;24.91;53.91;99772.45;223697;1267;138098;-88
2023/07/26 12:10:55;;;;;;;6.10;1.70;;;;;;;24.86;50.89;99779.04;223152;1267;140285;-92
2023/07/26 12:16:02;;;;;;;6.80;1.70;;;;;;;24.55;52.07;99777.72;223748;1266;138105;-93
2023/07/26 12:21:05;;;;;;;4.80;1.50;;;;;;;24.54;51.99;99777.65;223097;1266;140651;-93
2023/07/26 12:26:06;;;;;;;5.30;1.40;;;;;;;24.66;54.43;99772.90;223788;1266;96147;-93
2023/07/26 12:31:07;;;;;;;3.20;1.40;;;;;;;24.90;54.32;99774.65;223104;1267;139632;-94
2023/07/26 12:36:08;;;;;;;3.70;1.10;;;;;;;25.02;53.50;99776.86;223502;1267;137888;-94
2023/07/26 12:41:09;;;;;;;4.70;1.60;;;;;;;25.27;53.15;99771.73;223057;1267;140470;-93
2023/07/26 12:46:10;;;;;;;4.60;1.40;;;;;;;25.44;51.45;99773.32;223603;1267;138001;-95
2023/07/26 12:51:12;;;;;;;4.10;1.30;;;;;;;25.48;50.94;99769.05;223074;1266;139618;-94
2023/07/26 12:56:13;;;;;;;3.70;1.50;;;;;;;25.60;51.67;99765.15;223725;1267;105038;-93
2023/07/26 13:01:14;;;;;;;4.40;1.60;;;;;;;25.60;50.26;99757.45;223104;1267;139448;-94
2023/07/26 13:06:14;;;;;;;4.40;1.50;;;;;;;25.67;51.11;99752.83;223595;1267;138220;-93
2023/07/26 13:11:15;;;;;;;2.10;1.30;;;;;;;25.83;50.92;99755.05;223128;1266;140623;-93
2023/07/26 13:16:17;;;;;;;6.00;2.10;;;;;;;25.92;49.78;99755.06;223640;1266;138751;-93
2023/07/26 13:21:18;;;;;;;4.20;1.60;;;;;;;25.71;48.37;99751.38;223045;1268;139392;-93
2023/07/26 13:26:18;;;;;;;3.10;1.40;;;;;;;25.68;49.37;99745.20;223674;1267;138307;-93
2023/07/26 13:31:19;;;;;;;5.10;1.50;;;;;;;25.63;49.12;99746.85;223213;1267;139714;-93
2023/07/26 13:36:23;;;;;;;5.60;1.30;;;;;;;25.65;48.42;99736.20;223568;1267;137868;-92
2023/07/26 13:41:24;;;;;;;6.00;1.60;;;;;;;25.72;47.87;99738.95;223088;1266;139386;-88
2023/07/26 13:46:24;;;;;;;3.00;1.10;;;;;;;25.69;44.68;99738.61;223645;1267;138390;-92
2023/07/26 13:51:25;;;;;;;3.40;1.30;;;;;;;25.84;45.75;99737.59;223098;1267;139982;-94
2023/07/26 13:56:26;;;;;;;3.80;1.30;;;;;;;25.89;44.61;99737.70;223627;1267;138576;-92
2023/07/26 14:01:32;;;;;;;3.80;1.40;;;;;;;25.75;45.12;99748.09;223217;1267;139078;-93
2023/07/26 14:06:32;;;;;;;7.30;1.50;;;;;;;25.67;45.03;99755.80;223539;1266;138200;-92
2023/07/26 14:11:33;;;;;;;4.30;1.40;;;;;;;25.49;45.62;99762.05;223059;1267;139830;-92
2023/07/26 14:16:34;;;;;;;3.90;1.60;;;;;;;25.35;45.18;99764.54;223715;1266;138826;-93
2023/07/26 14:21:34;;;;;;;5.90;2.00;;;;;;;25.23;44.63;99766.05;223047;1266;140600;-92
2023/07/26 14:26:35;;;;;;;3.70;1.60;;;;;;;25.17;46.09;99773.70;223685;1267;138863;-94
2023/07/26 14:31:36;;;;;;;2.80;1.50;;;;;;;25.11;45.93;99773.31;223149;1267;139764;-92
2023/07/26 14:36:37;;;;;;;5.10;1.30;;;;;;;25.04;44.93;99777.92;223604;1266;138182;-93
2023/07/26 14:41:38;;;;;;;5.30;1.50;;;;;;;24.97;43.89;99775.56;223082;1267;139278;-90
2023/07/26 14:46:39;;;;;;;3.30;1.30;;;;;;;24.77;42.61;99771.13;223749;1266;138251;-93
2023/07/26 14:51:43;;;;;;;4.60;1.70;;;;;;;24.54;43.64;99767.25;223220;1266;140254;-91
2023/07/26 14:56:47;;;;;;;4.70;1.60;;;;;;;24.57;44.35;99768.28;223597;1267;138480;-93
2023/07/26 15:01:52;;;;;;;6.20;1.90;;;;;;;24.61;42.60;99767.61;223047;1267;139167;-92
2023/07/26 15:06:52;;;;;;;5.20;1.90;;;;;;;24.54;42.18;99763.05;223563;1267;137790;-92
2023/07/26 15:11:59;;;;;;;3.80;1.90;;;;;;;24.56;43.45;99757.77;223148;1266;139615;-93
2023/07/26 15:17:03;;;;;;;7.30;1.70;;;;;;;24.57;42.99;99754.42;223614;1267;138774;-93
2023/07/26 15:22:04;;;;;;;5.60;2.20;;;;;;;24.48;41.77;99759.69;223040;1266;140043;-93
2023/07/26 15:27:05;;;;;;;3.50;1.70;;;;;;;24.27;40.66;99760.98;223673;1267;138561;-94
2023/07/26 15:32:07;;;;;;;3.90;1.80;;;;;;;24.07;42.58;99760.75;223157;1267;140104;-93
2023/07/26 15:37:08;;;;;;;6.50;1.80;;;;;;;23.98;43.78;99766.71;223756;1266;137702;-95
2023/07/26 15:42:30;;;;;;;7.10;2.30;;;;;;;23.92;43.64;99768.83;223316;1267;138676;-96
2023/07/26 15:47:30;;;;;;;4.90;2.10;;;;;;;23.77;43.33;99765.83;223789;1267;137970;-94
2023/07/26 15:52:31;;;;;;;5.10;2.10;;;;;;;23.72;44.51;99769.36;223151;1266;140278;-96
2023/07/26 15:57:32;;;;;;;2.90;1.80;;;;;;;23.59;44.55;99770.94;223651;1267;137988;-95
2023/07/26 16:02:42;;;;;;;5.20;1.90;;;;;;;23.42;45.27;99766.56;223047;1267;138777;-95
2023/07/26 16:07:43;;;;;;;6.60;2.10;;;;;;;23.23;45.22;99774.05;223700;1267;96155;-93
2023/07/26 16:12:43;;;;;;;5.40;2.40;;;;;;;23.06;45.10;99771.20;222890;1267;141164;-94
2023/07/26 16:17:44;;;;;;;7.40;3.30;;;;;;;22.89;44.69;99778.77;223605;1267;138218;-95
2023/07/26 16:22:45;;;;;;;5.70;2.30;;;;;;;22.66;46.05;99788.05;223067;1266;139753;-92
2023/07/26 16:27:46;;;;;;;6.50;2.30;;;;;;;22.26;50.30;99802.81;223628;1267;138028;-92
2023/07/26 16:32:49;;;;;;;5.50;2.20;;;;;;;21.73;53.85;99806.31;223114;1266;140405;-91
2023/07/26 16:37:50;;;;;;;5.40;2.20;;;;;;;21.44;55.22;99807.76;223638;1267;96412;-92
2023/07/26 16:42:50;;;;;;;4.80;2.40;;;;;;;21.22;54.95;99816.21;223191;1267;139664;-91
2023/07/26 16:47:51;;;;;;;6.50;2.50;;;;;;;21.00;55.53;99821.13;223712;1266;138030;-91
2023/07/26 16:52:51;;;;;;;10.60;3.10;;;;;;;20.92;57.34;99824.40;223185;1267;140146;-92
2023/07/26 16:57:52;;;;;;;4.50;2.20;;;;;;;20.79;56.69;99834.67;223730;1266;138165;-92
2023/07/26 17:02:52;;;;;;;6.00;2.80;;;;;;;20.53;55.13;99841.95;223049;1267;140770;-91
2023/07/26 17:07:53;;;;;;;5.70;2.40;;;;;;;20.29;55.72;99846.59;223859;1266;95792;-92
2023/07/26 17:12:53;;;;;;;4.20;2.00;;;;;;;20.13;56.26;99851.77;223197;1266;139891;-90
2023/07/26 17:17:54;;;;;;;5.90;1.90;;;;;;;20.02;56.88;99859.67;223727;1266;138483;-91
2023/07/26 17:22:54;;;;;;;5.80;2.20;;;;;;;19.81;56.87;99859.92;223218;1267;140242;-91
2023/07/26 17:27:55;;;;;;;5.90;2.40;;;;;;;19.64;57.44;99863.86;223722;1266;137979;-91
2023/07/26 17:32:59;;;;;;;5.30;2.20;;;;;;;19.41;57.36;99863.95;223134;1267;140411;-90
2023/07/26 17:37:59;;;;;;;6.90;2.60;;;;;;;19.21;57.78;99865.64;223763;1267;95953;-91
2023/07/26 17:43:00;;;;;;;6.90;2.60;;;;;;;19.03;58.44;99875.31;223185;1266;139663;-91
2023/07/26 17:48:01;;;;;;;5.30;2.20;;;;;;;18.86;59.13;99879.81;223698;1267;137970;-91
2023/07/26 17:53:02;;;;;;;7.00;2.60;;;;;;;18.69;59.73;99888.48;223188;1266;141761;-90
2023/07/26 17:58:03;;;;;;;5.80;2.40;;;;;;;18.43;59.31;99892.83;223609;1267;138109;-91
2023/07/26 18:03:08;;;;;;;4.70;2.10;;;;;;;18.10;60.05;99892.73;223127;1267;139297;-89
2023/07/26 18:08:09;;;;;;;5.60;2.30;;;;;;;17.80;61.83;99897.14;223790;1266;95796;-91
2023/07/26 18:13:11;;;;;;;5.90;2.30;;;;;;;17.61;63.45;99902.66;223105;1267;140970;-90
2023/07/26 18:18:19;;;;;;;5.60;2.20;;;;;;;17.45;64.34;99903.63;223645;1267;137931;-90
2023/07/26 18:23:24;;;;;;;8.10;2.20;;;;;;;17.25;65.44;99907.66;223011;1267;139447;-91
2023/07/26 18:28:38;;;;;;;6.70;2.40;;;;;;;17.10;65.59;99913.92;223793;1266;138805;-91
2023/07/26 18:33:40;;;;;;;5.30;2.30;;;;;;;16.95;65.85;99921.33;223092;1268;138922;-91
2023/07/26 18:38:41;;;;;;;3.50;1.80;;;;;;;16.87;66.74;99930.11;223627;1270;139408;-91
2023/07/26 18:43:41;;;;;;;6.10;2.00;;;;;;;16.71;65.83;99942.34;223249;1267;141591;-89
2023/07/26 18:48:42;;;;;;;3.70;1.60;;;;;;;16.56;66.38;99948.64;223736;1267;138340;-90
2023/07/26 18:53:42;;;;;;;4.40;1.50;;;;;;;16.44;66.82;99947.14;223203;1267;140323;-91
2023/07/26 18:58:43;;;;;;;4.00;2.10;;;;;;;16.35;67.18;99954.41;223670;1266;138094;-91
2023/07/26 19:03:44;;;;;;;5.00;2.30;;;;;;;16.28;67.79;99961.08;223034;1268;140330;-90
2023/07/26 19:08:44;;;;;;;4.90;2.30;;;;;;;16.20;68.73;99964.25;223718;1267;138164;-92
2023/07/26 19:13:45;;;;;;;8.00;2.50;;;;;;;16.12;69.64;99967.66;223300;1267;140856;-91
2023/07/26 19:18:46;;;;;;;5.50;2.40;;;;;;;16.01;69.97;99974.20;223763;1266;138422;-91
2023/07/26 19:23:47;;;;;;;6.20;2.50;;;;;;;15.88;70.73;99979.35;223156;1266;139996;-90
2023/07/26 19:28:48;;;;;;;7.30;2.70;;;;;;;15.76;71.01;99980.84;223687;1267;138317;-91
2023/07/26 19:33:49;;;;;;;7.60;2.40;;;;;;;15.65;71.34;99986.09;223014;1267;140075;-90
2023/07/26 19:38:49;;;;;;;6.20;2.60;;;;;;;15.58;72.35;99988.34;223617;1267;139745;-91
2023/07/26 19:43:50;;;;;;;7.00;2.30;;;;;;;15.52;72.94;99988.37;223244;1266;140011;-91
2023/07/26 19:48:50;;;;;;;5.50;2.20;;;;;;;15.45;74.05;99991.95;223723;1266;139167;-90
2023/07/26 19:53:51;;;;;;;7.80;2.80;;;;;;;15.39;74.51;99995.39;223192;1266;140740;-90
2023/07/26 19:58:51;;;;;;;7.80;2.70;;;;;;;15.30;74.63;100000.58;223709;1267;139006;-91
2023/07/26 20:03:52;;;;;;;5.60;2.40;;;;;;;15.19;75.64;100002.46;223161;1267;140434;-90
2023/07/26 20:08:52;;;;;;;6.40;2.60;;;;;;;15.06;76.05;100002.88;223676;1267;138985;-91
2023/07/26 20:13:53;;;;;;;7.60;2.40;;;;;;;14.96;76.64;100004.13;223252;1267;140780;-90
2023/07/26 20:18:53;;;;;;;9.10;3.00;;;;;;;14.86;77.35;100004.20;223645;1266;138710;-91
2023/07/26 20:23:54;;;;;;;7.80;2.70;;;;;;;14.73;78.03;100006.49;223149;1267;140654;-91
2023/07/26 20:28:55;;;;;;;7.40;2.80;;;;;;;14.62;78.66;100003.63;223714;1268;139344;-90
2023/07/26 20:33:55;;;;;;;6.60;3.00;;;;;;;14.50;79.05;100007.39;223361;1268;138995;-91
2023/07/26 20:38:56;;;;;;;8.40;3.30;;;;;;;14.44;78.85;100011.27;223143;1268;141171;-89
2023/07/26 20:43:56;;;;;;;6.90;3.00;;;;;;;14.37;79.51;100014.20;223719;1268;95999;-90
2023/07/26 20:48:57;;;;;;;8.70;3.60;;;;;;;14.26;79.98;100015.10;223165;1267;140940;-91
2023/07/26 20:53:57;;;;;;;6.90;3.30;;;;;;;14.16;80.60;100021.50;223674;1267;139388;-91
2023/07/26 20:58:58;;;;;;;7.10;3.20;;;;;;;14.07;80.91;100025.94;223060;1268;140687;-91
2023/07/26 21:03:58;;;;;;;6.40;2.60;;;;;;;13.96;81.83;100029.99;223679;1267;138958;-90
2023/07/26 21:08:59;;;;;;;8.90;3.10;;;;;;;13.86;82.30;100027.55;223065;1268;140836;-90
2023/07/26 21:14:00;;;;;;;8.30;2.50;;;;;;;13.76;82.93;100034.36;223794;1266;96327;-90
2023/07/26 21:19:00;;;;;;;6.50;3.00;;;;;;;13.65;83.29;100029.46;223133;1267;163519;-90
2023/07/26 21:24:01;;;;;;;7.00;2.70;;;;;;;13.56;83.86;100033.33;223690;1266;139038;-90
2023/07/26 21:29:01;;;;;;;7.80;3.20;;;;;;;13.48;84.46;100033.85;223046;1266;141023;-90
2023/07/26 21:34:02;;;;;;;7.50;3.00;;;;;;;13.38;84.82;100033.30;223692;1266;138775;-90
2023/07/26 21:39:02;;;;;;;7.20;3.00;;;;;;;13.31;85.35;100038.23;222982;1266;225125;-90
2023/07/26 21:44:03;;;;;;;6.10;2.80;;;;;;;13.23;85.84;100041.84;223767;1267;111989;-90
2023/07/26 21:49:03;;;;;;;6.50;2.70;;;;;;;13.15;85.42;100043.63;223160;1267;141613;-91
2023/07/26 21:54:04;;;;;;;8.30;3.00;;;;;;;13.11;85.95;100043.23;223685;1267;138808;-90
2023/07/26 21:59:05;;;;;;;7.40;3.50;;;;;;;13.06;86.03;100050.45;223158;1267;141045;-91
2023/07/26 22:04:05;;;;;;;6.90;2.80;;;;;;;13.01;86.30;100044.96;223650;1271;139661;-91
2023/07/26 22:09:06;;;;;;;8.70;2.90;;;;;;;12.96;86.02;100046.23;223148;1267;140952;-91
2023/07/26 22:14:06;;;;;;;7.00;3.10;;;;;;;12.91;87.01;100050.65;223782;1268;95966;-91
2023/07/26 22:19:08;;;;;;;7.80;3.10;;;;;;;12.85;87.43;100056.44;223153;1266;141075;-90
2023/07/26 22:24:08;;;;;;;6.40;3.00;;;;;;;12.77;88.43;100054.58;223632;1268;139181;-91
2023/07/26 22:29:09;;;;;;;8.90;3.10;;;;;;;12.66;88.91;100058.64;223158;1267;140863;-91
2023/07/26 22:34:09;;;;;;;8.90;3.00;;;;;;;12.60;89.39;100066.62;223698;1267;138873;-91
2023/07/26 22:39:09;;;;;;;8.10;3.00;;;;;;;12.51;90.26;100065.40;223181;1268;140562;-90
2023/07/26 22:44:10;;;;;;;8.20;3.70;;;;;;;12.45;90.71;100066.13;223831;1268;96050;-90
2023/07/26 22:49:10;;;;;;;14.50;3.30;;;;;;;12.37;90.90;100066.36;223159;1268;140502;-90
2023/07/26 22:54:10;;;;;;;8.00;3.40;;;;;;;12.31;90.31;100065.67;223649;1266;139399;-90
2023/07/26 22:59:11;;;;;;;9.40;3.60;;;;;;;12.27;91.04;100066.86;223135;1270;140862;-90